• Join FlightAware (Why Join?)
  • Login
  • US Flag 
09:58PM EDT


 

Airport Tracker/Info


-or-


 

Live Flight TrackerFlight Track Log ✈ LXJ342 ✈ 05-May-2013 ✈ KPWK - KSDF

Flight Track Log - Related Links

Times and Time Zones

All times are in EDT time to prevent confusion due to time zone crossing. See the LXJ342 flight status page for this flight to view local times or setup timezone preferences in your user account.

Time Position Orientation Groundspeed Altitude Reporting Facility
EDT Latitude Longitude Course Direction KTS MPH feet Rate Location/Type
10:48AM 42.2000 -87.9333 350° North 250 288 5,400  Level Chicago TRACON
10:49AM 42.1958 -87.8767 96° East 242 278 9,900 3,300 Climbing Chicago Center
10:50AM 42.1039 -87.8778 181° South 284 327 12,700 3,000 Climbing Chicago Center
10:51AM 42.0131 -87.8592 171° South 334 384 16,100 2,940 Climbing Chicago Center
10:52AM 41.9208 -87.8289 166° South 342 394 18,800 2,460 Climbing Chicago Center
10:53AM 41.8228 -87.8033 169° South 357 411 21,200 2,220 Climbing Chicago Center
10:54AM 41.7211 -87.7775 169° South 368 423 23,400 2,040 Climbing Chicago Center
10:55AM 41.6156 -87.7528 170° South 380 437 25,400 1,740 Climbing Chicago Center
10:56AM 41.5075 -87.7269 170° South 389 448 27,000 780 Climbing Chicago Center
10:57AM 41.3947 -87.6986 169° South 404 465 27,000  Level Chicago Center
10:58AM 41.2631 -87.6664 170° South 399 459 27,000  Level Chicago Center
10:59AM 41.1556 -87.6411 170° South 393 452 27,000  Level Chicago Center
11:00AM 41.0433 -87.6108 168° South 403 464 27,000  Level Chicago Center
11:01AM 40.9336 -87.5431 155° Southeast 431 496 27,000  Level Chicago Center
11:02AM 40.8253 -87.4794 156° South 429 494 27,000  Level Chicago Center
11:03AM 40.7178 -87.4172 156° South 425 489 27,000  Level Chicago Center
11:04AM 40.6097 -87.3553 156° South 424 488 27,000  Level Chicago Center
11:05AM 40.4814 -87.2811 156° South 422 486 27,000  Level Chicago Center
11:06AM 40.3700 -87.2211 158° South 421 484 27,000  Level Chicago Center
11:07AM 40.2625 -87.1606 157° South 421 484 27,000  Level Chicago Center
11:08AM 40.1569 -87.0994 156° South 416 479 27,000  Level Chicago Center
11:09AM 40.0692 -87.0506 157° South 423 487 27,000  Level Indianapolis Center
11:10AM 39.9644 -86.9908 156° South 415 478 27,000  Level Indianapolis Center
11:11AM 39.8608 -86.9331 157° South 410 472 27,000 -180 Level Indianapolis Center
11:12AM 39.7364 -86.8642 157° South 409 471 26,700 -720 Descending Indianapolis Center
11:13AM 39.6322 -86.8050 156° South 413 475 25,600 -1,080 Descending Indianapolis Center
11:14AM 39.5328 -86.7508 157° South 398 458 24,500 -1,080 Descending Indianapolis Center
11:15AM 39.4350 -86.6969 157° South 386 444 23,400 -780 Descending Indianapolis Center
11:16AM 39.3400 -86.6425 156° South 381 438 23,000 -660 Descending Indianapolis Center
11:17AM 39.2281 -86.5819 157° South 369 425 22,100 -1,500 Descending Indianapolis Center
11:19AM 39.1322 -86.5294 157° South 375 432 20,000 -1,980 Descending Indianapolis Center
11:20AM 39.0414 -86.4803 157° South 360 414 18,100 -1,860 Descending Indianapolis Center
11:21AM 38.9536 -86.4319 157° South 349 402 16,200 -1,920 Descending Indianapolis Center
11:22AM 38.8578 -86.3794 157° South 347 399 14,200 -1,920 Descending Indianapolis Center
11:23AM 38.7739 -86.3336 157° South 333 383 12,300 -1,560 Descending Indianapolis Center
11:24AM 38.6956 -86.2872 155° Southeast 314 361 11,000 -1,260 Descending Indianapolis Center
11:25AM 38.6397 -86.2292 141° Southeast 267 307 9,700 -1,440 Descending Indianapolis Center
11:26AM 38.5881 -86.1658 136° Southeast 258 297 8,100 -1,440 Descending Indianapolis Center
11:27AM 38.5472 -86.0892 124° Southeast 259 298 6,800 -1,260 Descending Indianapolis Center
11:28AM 38.5033 -86.0156 127° Southeast 260 299 5,500 -1,260 Descending Indianapolis Center
11:29AM 38.4519 -85.9331 128° Southeast 250 288 4,200 -1,200 Descending Indianapolis Center
11:30AM 38.4056 -85.8853 141° Southeast 224 258 3,100 -600 Descending Indianapolis Center
11:31AM 38.3594 -85.8347 139° Southeast 217 250 3,000 -60 Descending Indianapolis Center
11:32AM 38.3119 -85.7919 145° Southeast 218 251 3,000 -420 Level Indianapolis Center
11:33AM 38.2661 -85.7750 164° South 191 220 2,200 -780 Descending Indianapolis Center
11:36AM 38.1741 -85.7365 142° Southeast  Level Estimated